Kurun — FAA9678 — position and weather

sailwx.info

Track history (hours):
 
Tides and Currents Weather Stations Pressure Air Temp Water Temp Dewpoint Dewpoint Depression Visibility Wind Speed Wind Dir Waves Ship Positions

Kurun

Last reported at 2018-May-12 04:53 UTC. Time now 2018-May-27 03:01 UTC.
Position N 49°26' W 002°31'.
Warning: this ship's position is 14 days out of date.

Type: Sailing vessel. MMSI: 227174770.

Date/timePositionNaut miles runAvg speedWind from/ knotsBaromVisibWave heightAir tempDewpointWater temp
2018-May-12 04:53N 49°26' W 002°31'2 4.0
2018-May-12 04:28N 49°27' W 002°30'1 0.1
2018-May-11 15:10N 49°27' W 002°32'0 0.0
2018-May-11 14:52N 49°27' W 002°32'0 0.0
2018-May-11 14:16N 49°27' W 002°32'0 0.0
2018-May-11 13:04N 49°27' W 002°32'0 0.0
2018-May-11 11:52N 49°27' W 002°32'0 0.0
2018-May-11 11:28N 49°27' W 002°32'0 0.0
2018-May-11 09:52N 49°27' W 002°32'0 0.0
2018-May-11 09:28N 49°27' W 002°32'0 0.0
2018-May-11 08:52N 49°27' W 002°32'0 0.0
2018-May-10 14:33N 49°27' W 002°32'0 2.2
2018-May-10 14:29N 49°27' W 002°32'  
2018-May-07 09:00N 48°36' W 004°45'3 5.3
2018-May-07 08:30N 48°34' W 004°48'2 5.1
2018-May-07 08:00N 48°32' W 004°48'3 5.1
2018-May-07 07:31N 48°29' W 004°49'3 5.5
2018-May-07 07:00N 48°27' W 004°50'4 6.4
2018-May-07 06:24N 48°23' W 004°48'3 7.3
2018-May-07 06:00N 48°20' W 004°47'3 5.7
2018-May-07 05:30N 48°19' W 004°43'3 5.1
2018-May-07 05:00N 48°18' W 004°40'2 4.9
2018-May-07 04:30N 48°17' W 004°36'1 0.1
2018-May-06 13:34N 48°17' W 004°35'0 0.0
2018-May-06 13:28N 48°17' W 004°35'0 0.2
2018-May-06 13:01N 48°17' W 004°35'2 3.3
2018-May-06 12:30N 48°17' W 004°38'3 5.5
2018-May-06 12:00N 48°15' W 004°40'3 5.7
2018-May-06 11:30N 48°12' W 004°42'2 4.7
2018-May-06 11:00N 48°10' W 004°44'2 4.1
2018-May-06 10:30N 48°08' W 004°44'2 3.9
2018-May-06 10:00N 48°06' W 004°45'3 2.9
2018-May-06 08:52N 48°03' W 004°47'63 5.6
2018-May-05 21:36N 47°28' W 003°29'1 5.9
2018-May-05 21:30N 47°28' W 003°28'82 3.8
2018-May-05 00:04N 46°33' W 001°60'1 5.8
2018-May-04 23:58N 46°33' W 001°60'3 5.4
2018-May-04 23:30N 46°31' W 001°57'3 5.3
2018-May-04 23:00N 46°28' W 001°55'3 5.2
2018-May-04 22:30N 46°26' W 001°53'3 5.1
2018-May-04 22:00N 46°25' W 001°50'2 4.6
2018-May-04 21:29N 46°24' W 001°47'3 5.3
2018-May-04 21:00N 46°23' W 001°43'3 5.9
2018-May-04 20:30N 46°23' W 001°39'12 5.7
2018-May-04 18:21N 46°16' W 001°24'2 5.9
2018-May-04 18:00N 46°15' W 001°21'3 6.1
2018-May-04 17:30N 46°13' W 001°18'3 6.6
2018-May-04 17:00N 46°11' W 001°15'2 4.2
2018-May-04 16:30N 46°09' W 001°14'2 4.9
2018-May-04 16:00N 46°09' W 001°10'  
Track history (hours):
 
Tides and Currents Weather Stations Pressure Air Temp Water Temp Dewpoint Dewpoint Depression Visibility Wind Speed Wind Dir Waves Ship Positions

Kurun

Last reported at 2018-May-12 04:53 UTC. Time now 2018-May-27 03:01 UTC.
Position N 49°26' W 002°31'.
Warning: this ship's position is 14 days out of date.

Type: Sailing vessel. MMSI: 227174770.

Date/timePositionNaut miles runAvg speedWind from/ knotsBaromVisibWave heightAir tempDewpointWater temp
2018-May-12 04:53N 49°26' W 002°31'2 4.0
2018-May-12 04:28N 49°27' W 002°30'1 0.1
2018-May-11 15:10N 49°27' W 002°32'0 0.0
2018-May-11 14:52N 49°27' W 002°32'0 0.0
2018-May-11 14:16N 49°27' W 002°32'0 0.0
2018-May-11 13:04N 49°27' W 002°32'0 0.0
2018-May-11 11:52N 49°27' W 002°32'0 0.0
2018-May-11 11:28N 49°27' W 002°32'0 0.0
2018-May-11 09:52N 49°27' W 002°32'0 0.0
2018-May-11 09:28N 49°27' W 002°32'0 0.0
2018-May-11 08:52N 49°27' W 002°32'0 0.0
2018-May-10 14:33N 49°27' W 002°32'0 2.2
2018-May-10 14:29N 49°27' W 002°32'  
2018-May-07 09:00N 48°36' W 004°45'3 5.3
2018-May-07 08:30N 48°34' W 004°48'2 5.1
2018-May-07 08:00N 48°32' W 004°48'3 5.1
2018-May-07 07:31N 48°29' W 004°49'3 5.5
2018-May-07 07:00N 48°27' W 004°50'4 6.4
2018-May-07 06:24N 48°23' W 004°48'3 7.3
2018-May-07 06:00N 48°20' W 004°47'3 5.7
2018-May-07 05:30N 48°19' W 004°43'3 5.1
2018-May-07 05:00N 48°18' W 004°40'2 4.9
2018-May-07 04:30N 48°17' W 004°36'1 0.1
2018-May-06 13:34N 48°17' W 004°35'0 0.0
2018-May-06 13:28N 48°17' W 004°35'0 0.2
2018-May-06 13:01N 48°17' W 004°35'2 3.3
2018-May-06 12:30N 48°17' W 004°38'3 5.5
2018-May-06 12:00N 48°15' W 004°40'3 5.7
2018-May-06 11:30N 48°12' W 004°42'2 4.7
2018-May-06 11:00N 48°10' W 004°44'2 4.1
2018-May-06 10:30N 48°08' W 004°44'2 3.9
2018-May-06 10:00N 48°06' W 004°45'3 2.9
2018-May-06 08:52N 48°03' W 004°47'63 5.6
2018-May-05 21:36N 47°28' W 003°29'1 5.9
2018-May-05 21:30N 47°28' W 003°28'82 3.8
2018-May-05 00:04N 46°33' W 001°60'1 5.8
2018-May-04 23:58N 46°33' W 001°60'3 5.4
2018-May-04 23:30N 46°31' W 001°57'3 5.3
2018-May-04 23:00N 46°28' W 001°55'3 5.2
2018-May-04 22:30N 46°26' W 001°53'3 5.1
2018-May-04 22:00N 46°25' W 001°50'2 4.6
2018-May-04 21:29N 46°24' W 001°47'3 5.3
2018-May-04 21:00N 46°23' W 001°43'3 5.9
2018-May-04 20:30N 46°23' W 001°39'12 5.7
2018-May-04 18:21N 46°16' W 001°24'2 5.9
2018-May-04 18:00N 46°15' W 001°21'3 6.1
2018-May-04 17:30N 46°13' W 001°18'3 6.6
2018-May-04 17:00N 46°11' W 001°15'2 4.2
2018-May-04 16:30N 46°09' W 001°14'2 4.9
2018-May-04 16:00N 46°09' W 001°10'  

Dump ship's entire track history